sensor_id;sensor_type;location;lat;lon;timestamp;temperature;humidity
32107;DHT22;18622;51.998;10.440;2023-10-09T03:33:40;13.70;99.90
32107;DHT22;18622;51.998;10.440;2023-10-09T03:36:08;13.70;99.90
32107;DHT22;18622;51.998;10.440;2023-10-09T03:38:39;13.60;99.90
32107;DHT22;18622;51.998;10.440;2023-10-09T03:41:07;13.60;99.90
32107;DHT22;18622;51.998;10.440;2023-10-09T03:43:37;13.70;99.90
32107;DHT22;18622;51.998;10.440;2023-10-09T03:46:07;13.70;99.90
32107;DHT22;18622;51.998;10.440;2023-10-09T03:48:37;13.70;99.90
32107;DHT22;18622;51.998;10.440;2023-10-09T03:51:05;13.70;99.90
32107;DHT22;18622;51.998;10.440;2023-10-09T03:53:37;13.60;99.90
32107;DHT22;18622;51.998;10.440;2023-10-09T03:56:08;13.70;99.90
32107;DHT22;18622;51.998;10.440;2023-10-09T03:58:39;13.70;99.90
32107;DHT22;18622;51.998;10.440;2023-10-09T04:01:16;13.80;99.90
32107;DHT22;18622;51.998;10.440;2023-10-09T04:03:52;14.10;99.90
32107;DHT22;18622;51.998;10.440;2023-10-09T04:06:21;14.60;99.90
32107;DHT22;18622;51.998;10.440;2023-10-09T04:08:49;14.90;99.90
32107;DHT22;18622;51.998;10.440;2023-10-09T04:11:18;15.20;99.90
32107;DHT22;18622;51.998;10.440;2023-10-09T04:13:47;15.40;99.90
32107;DHT22;18622;51.998;10.440;2023-10-09T04:16:17;15.50;99.90
32107;DHT22;18622;51.998;10.440;2023-10-09T04:18:46;15.60;99.90
32107;DHT22;18622;51.998;10.440;2023-10-09T04:21:14;15.80;99.90
32107;DHT22;18622;51.998;10.440;2023-10-09T04:23:49;15.80;99.90
32107;DHT22;18622;51.998;10.440;2023-10-09T04:26:19;15.90;99.90
32107;DHT22;18622;51.998;10.440;2023-10-09T04:28:47;16.00;99.90
32107;DHT22;18622;51.998;10.440;2023-10-09T04:31:17;16.10;99.90
32107;DHT22;18622;51.998;10.440;2023-10-09T04:33:47;16.20;99.90
32107;DHT22;18622;51.998;10.440;2023-10-09T04:36:33;16.20;99.90
32107;DHT22;18622;51.998;10.440;2023-10-09T04:39:05;16.20;99.90
32107;DHT22;18622;51.998;10.440;2023-10-09T04:41:35;16.30;99.90
32107;DHT22;18622;51.998;10.440;2023-10-09T04:44:10;16.30;99.90
32107;DHT22;18622;51.998;10.440;2023-10-09T04:46:50;16.30;99.90
32107;DHT22;18622;51.998;10.440;2023-10-09T04:49:39;16.40;99.90
32107;DHT22;18622;51.998;10.440;2023-10-09T04:52:18;16.40;99.90
32107;DHT22;18622;51.998;10.440;2023-10-09T04:54:54;16.30;99.90
32107;DHT22;18622;51.998;10.440;2023-10-09T04:57:38;16.30;99.90
32107;DHT22;18622;51.998;10.440;2023-10-09T05:00:16;16.20;99.90
32107;DHT22;18622;51.998;10.440;2023-10-09T05:02:57;16.20;99.90
32107;DHT22;18622;51.998;10.440;2023-10-09T05:05:27;16.10;99.90
32107;DHT22;18622;51.998;10.440;2023-10-09T05:07:57;15.90;99.90
32107;DHT22;18622;51.998;10.440;2023-10-09T05:10:26;15.80;99.90
32107;DHT22;18622;51.998;10.440;2023-10-09T05:12:54;15.70;99.90
32107;DHT22;18622;51.998;10.440;2023-10-09T05:15:24;15.60;99.90
32107;DHT22;18622;51.998;10.440;2023-10-09T05:17:54;15.50;99.90
32107;DHT22;18622;51.998;10.440;2023-10-09T05:20:23;15.40;99.90
32107;DHT22;18622;51.998;10.440;2023-10-09T05:22:56;15.30;99.90
32107;DHT22;18622;51.998;10.440;2023-10-09T05:25:28;15.20;99.90
32107;DHT22;18622;51.998;10.440;2023-10-09T05:28:06;15.10;99.90
32107;DHT22;18622;51.998;10.440;2023-10-09T05:30:36;15.00;99.90
32107;DHT22;18622;51.998;10.440;2023-10-09T05:33:05;15.00;99.90
32107;DHT22;18622;51.998;10.440;2023-10-09T05:35:51;14.90;99.90
32107;DHT22;18622;51.998;10.440;2023-10-09T05:38:37;14.90;99.90
32107;DHT22;18622;51.998;10.440;2023-10-09T05:41:07;14.90;99.90
32107;DHT22;18622;51.998;10.440;2023-10-09T05:43:39;14.90;99.90
32107;DHT22;18622;51.998;10.440;2023-10-09T05:46:25;14.90;99.90
32107;DHT22;18622;51.998;10.440;2023-10-09T05:48:54;14.80;99.90
32107;DHT22;18622;51.998;10.440;2023-10-09T05:51:24;14.90;99.90
32107;DHT22;18622;51.998;10.440;2023-10-09T05:54:09;14.90;99.90
32107;DHT22;18622;51.998;10.440;2023-10-09T05:56:55;14.90;99.90
32107;DHT22;18622;51.998;10.440;2023-10-09T05:59:41;14.90;99.90
32107;DHT22;18622;51.998;10.440;2023-10-09T06:02:27;14.90;99.90
32107;DHT22;18622;51.998;10.440;2023-10-09T06:05:13;14.90;99.90
32107;DHT22;18622;51.998;10.440;2023-10-09T06:07:42;14.90;99.90
32107;DHT22;18622;51.998;10.440;2023-10-09T06:10:12;14.90;99.90
32107;DHT22;18622;51.998;10.440;2023-10-09T06:12:44;14.90;99.90
32107;DHT22;18622;51.998;10.440;2023-10-09T06:15:13;14.90;99.90
32107;DHT22;18622;51.998;10.440;2023-10-09T06:17:48;14.90;99.90
32107;DHT22;18622;51.998;10.440;2023-10-09T06:20:19;15.00;99.90
32107;DHT22;18622;51.998;10.440;2023-10-09T06:23:04;14.90;99.90
32107;DHT22;18622;51.998;10.440;2023-10-09T06:25:46;14.90;99.90
32107;DHT22;18622;51.998;10.440;2023-10-09T06:28:16;15.00;99.90
32107;DHT22;18622;51.998;10.440;2023-10-09T06:30:45;15.00;99.90
32107;DHT22;18622;51.998;10.440;2023-10-09T06:33:14;15.00;99.90
32107;DHT22;18622;51.998;10.440;2023-10-09T06:35:49;15.00;99.90
32107;DHT22;18622;51.998;10.440;2023-10-09T06:38:24;15.00;99.90
32107;DHT22;18622;51.998;10.440;2023-10-09T06:40:53;15.00;99.90
32107;DHT22;18622;51.998;10.440;2023-10-09T06:43:35;14.90;99.90
32107;DHT22;18622;51.998;10.440;2023-10-09T06:46:17;15.00;99.90
32107;DHT22;18622;51.998;10.440;2023-10-09T06:48:55;14.90;99.90
32107;DHT22;18622;51.998;10.440;2023-10-09T06:51:23;14.90;99.90
32107;DHT22;18622;51.998;10.440;2023-10-09T06:53:56;14.90;99.90
32107;DHT22;18622;51.998;10.440;2023-10-09T06:56:35;14.90;99.90
32107;DHT22;18622;51.998;10.440;2023-10-09T06:59:05;14.90;99.90
32107;DHT22;18622;51.998;10.440;2023-10-09T07:01:44;15.00;99.90
32107;DHT22;18622;51.998;10.440;2023-10-09T07:04:14;15.00;99.90
32107;DHT22;18622;51.998;10.440;2023-10-09T07:07:02;15.00;99.90
32107;DHT22;18622;51.998;10.440;2023-10-09T07:09:31;15.00;99.90
32107;DHT22;18622;51.998;10.440;2023-10-09T07:12:13;15.10;99.90
32107;DHT22;18622;51.998;10.440;2023-10-09T07:14:42;15.10;99.90
32107;DHT22;18622;51.998;10.440;2023-10-09T07:17:12;15.10;99.90
32107;DHT22;18622;51.998;10.440;2023-10-09T07:19:45;15.20;99.90
32107;DHT22;18622;51.998;10.440;2023-10-09T07:22:15;15.20;99.90
32107;DHT22;18622;51.998;10.440;2023-10-09T07:24:46;15.10;99.90
32107;DHT22;18622;51.998;10.440;2023-10-09T07:27:20;15.10;99.90
32107;DHT22;18622;51.998;10.440;2023-10-09T07:29:49;15.20;99.90
32107;DHT22;18622;51.998;10.440;2023-10-09T07:32:17;15.20;99.90
32107;DHT22;18622;51.998;10.440;2023-10-09T07:34:53;15.30;99.90
32107;DHT22;18622;51.998;10.440;2023-10-09T07:37:26;15.30;99.90
32107;DHT22;18622;51.998;10.440;2023-10-09T07:40:02;15.30;99.90
32107;DHT22;18622;51.998;10.440;2023-10-09T07:42:32;15.30;99.90
32107;DHT22;18622;51.998;10.440;2023-10-09T07:45:11;15.30;99.90
32107;DHT22;18622;51.998;10.440;2023-10-09T07:47:50;15.30;99.90
32107;DHT22;18622;51.998;10.440;2023-10-09T07:50:34;15.40;99.90
32107;DHT22;18622;51.998;10.440;2023-10-09T07:53:16;15.40;99.90
32107;DHT22;18622;51.998;10.440;2023-10-09T07:55:48;15.40;99.90
32107;DHT22;18622;51.998;10.440;2023-10-09T07:58:24;15.40;99.90
32107;DHT22;18622;51.998;10.440;2023-10-09T08:00:54;15.40;99.90
32107;DHT22;18622;51.998;10.440;2023-10-09T08:03:27;15.40;99.90
32107;DHT22;18622;51.998;10.440;2023-10-09T08:05:57;15.40;99.90
32107;DHT22;18622;51.998;10.440;2023-10-09T08:08:26;15.40;99.90
32107;DHT22;18622;51.998;10.440;2023-10-09T08:11:02;15.40;99.90
32107;DHT22;18622;51.998;10.440;2023-10-09T08:13:47;15.40;99.90
32107;DHT22;18622;51.998;10.440;2023-10-09T08:16:26;15.40;99.90
32107;DHT22;18622;51.998;10.440;2023-10-09T08:18:55;15.40;99.90
32107;DHT22;18622;51.998;10.440;2023-10-09T08:21:24;15.50;99.90
32107;DHT22;18622;51.998;10.440;2023-10-09T08:24:11;15.40;99.90
32107;DHT22;18622;51.998;10.440;2023-10-09T08:26:50;15.50;99.90
32107;DHT22;18622;51.998;10.440;2023-10-09T08:29:20;15.50;99.90
32107;DHT22;18622;51.998;10.440;2023-10-09T08:31:49;15.50;99.90
32107;DHT22;18622;51.998;10.440;2023-10-09T08:34:19;15.60;99.90
32107;DHT22;18622;51.998;10.440;2023-10-09T08:36:52;15.60;99.90
32107;DHT22;18622;51.998;10.440;2023-10-09T08:39:23;15.70;99.90
32107;DHT22;18622;51.998;10.440;2023-10-09T08:41:53;15.70;99.90
32107;DHT22;18622;51.998;10.440;2023-10-09T08:44:24;15.80;99.90
32107;DHT22;18622;51.998;10.440;2023-10-09T08:46:57;15.90;99.90
32107;DHT22;18622;51.998;10.440;2023-10-09T08:49:27;16.00;99.90
32107;DHT22;18622;51.998;10.440;2023-10-09T08:51:55;16.00;99.90
32107;DHT22;18622;51.998;10.440;2023-10-09T08:54:23;16.10;99.90
32107;DHT22;18622;51.998;10.440;2023-10-09T08:56:51;16.20;99.90
32107;DHT22;18622;51.998;10.440;2023-10-09T08:59:19;16.20;99.90
32107;DHT22;18622;51.998;10.440;2023-10-09T09:01:49;16.20;99.90
32107;DHT22;18622;51.998;10.440;2023-10-09T09:04:40;16.30;99.90
32107;DHT22;18622;51.998;10.440;2023-10-09T09:07:28;16.30;99.90
32107;DHT22;18622;51.998;10.440;2023-10-09T09:09:59;16.40;99.90
32107;DHT22;18622;51.998;10.440;2023-10-09T09:12:47;16.50;99.90
32107;DHT22;18622;51.998;10.440;2023-10-09T09:15:20;16.60;99.90
32107;DHT22;18622;51.998;10.440;2023-10-09T09:17:50;16.70;99.90
32107;DHT22;18622;51.998;10.440;2023-10-09T09:20:25;16.80;99.90
32107;DHT22;18622;51.998;10.440;2023-10-09T09:22:55;16.90;99.90
32107;DHT22;18622;51.998;10.440;2023-10-09T09:25:24;16.90;99.90
32107;DHT22;18622;51.998;10.440;2023-10-09T09:27:53;16.90;99.90
32107;DHT22;18622;51.998;10.440;2023-10-09T09:30:25;16.90;99.90
32107;DHT22;18622;51.998;10.440;2023-10-09T09:32:54;17.00;99.90
32107;DHT22;18622;51.998;10.440;2023-10-09T09:35:40;17.10;99.90
32107;DHT22;18622;51.998;10.440;2023-10-09T09:38:09;17.30;99.90
32107;DHT22;18622;51.998;10.440;2023-10-09T09:40:39;17.40;99.90
32107;DHT22;18622;51.998;10.440;2023-10-09T09:43:11;17.50;99.90
32107;DHT22;18622;51.998;10.440;2023-10-09T09:45:42;17.60;99.90
32107;DHT22;18622;51.998;10.440;2023-10-09T09:48:12;17.70;99.90
32107;DHT22;18622;51.998;10.440;2023-10-09T09:50:42;17.80;99.90
32107;DHT22;18622;51.998;10.440;2023-10-09T09:53:14;17.90;99.90
32107;DHT22;18622;51.998;10.440;2023-10-09T09:55:50;18.00;99.90
32107;DHT22;18622;51.998;10.440;2023-10-09T09:58:24;18.10;99.90
32107;DHT22;18622;51.998;10.440;2023-10-09T10:00:56;18.10;99.90
32107;DHT22;18622;51.998;10.440;2023-10-09T10:03:37;18.20;99.90
32107;DHT22;18622;51.998;10.440;2023-10-09T10:06:07;18.20;99.90
32107;DHT22;18622;51.998;10.440;2023-10-09T10:08:36;18.30;99.90
32107;DHT22;18622;51.998;10.440;2023-10-09T10:11:06;18.30;99.90
32107;DHT22;18622;51.998;10.440;2023-10-09T10:16:15;18.40;99.90
32107;DHT22;18622;51.998;10.440;2023-10-09T10:19:01;18.50;99.90
32107;DHT22;18622;51.998;10.440;2023-10-09T10:21:31;18.60;99.90
32107;DHT22;18622;51.998;10.440;2023-10-09T10:24:01;18.50;99.90
32107;DHT22;18622;51.998;10.440;2023-10-09T10:26:37;18.40;99.90
32107;DHT22;18622;51.998;10.440;2023-10-09T10:29:18;18.30;99.90
32107;DHT22;18622;51.998;10.440;2023-10-09T10:31:57;18.20;99.90
32107;DHT22;18622;51.998;10.440;2023-10-09T10:34:51;17.90;99.90
32107;DHT22;18622;51.998;10.440;2023-10-09T10:36:57;17.70;99.90
32107;DHT22;18622;51.998;10.440;2023-10-09T10:39:26;17.60;99.90
32107;DHT22;18622;51.998;10.440;2023-10-09T10:42:14;17.50;99.90
32107;DHT22;18622;51.998;10.440;2023-10-09T10:45:02;17.30;99.90
32107;DHT22;18622;51.998;10.440;2023-10-09T10:47:30;17.20;99.90
32107;DHT22;18622;51.998;10.440;2023-10-09T10:50:02;17.20;99.90
32107;DHT22;18622;51.998;10.440;2023-10-09T10:52:47;17.10;99.90
32107;DHT22;18622;51.998;10.440;2023-10-09T10:55:17;16.90;99.90
32107;DHT22;18622;51.998;10.440;2023-10-09T10:57:46;16.90;99.90
32107;DHT22;18622;51.998;10.440;2023-10-09T11:00:20;16.90;99.90
32107;DHT22;18622;51.998;10.440;2023-10-09T11:03:06;16.80;99.90
32107;DHT22;18622;51.998;10.440;2023-10-09T11:05:42;16.80;99.90
32107;DHT22;18622;51.998;10.440;2023-10-09T11:08:11;16.90;99.90
32107;DHT22;18622;51.998;10.440;2023-10-09T11:10:40;16.90;99.90
32107;DHT22;18622;51.998;10.440;2023-10-09T11:13:09;16.90;99.90
32107;DHT22;18622;51.998;10.440;2023-10-09T11:15:39;16.80;99.90
32107;DHT22;18622;51.998;10.440;2023-10-09T11:18:15;16.90;99.90
32107;DHT22;18622;51.998;10.440;2023-10-09T11:20:56;16.90;99.90
32107;DHT22;18622;51.998;10.440;2023-10-09T11:23:32;16.90;99.90
32107;DHT22;18622;51.998;10.440;2023-10-09T11:26:04;16.80;99.90
32107;DHT22;18622;51.998;10.440;2023-10-09T11:29:10;16.80;99.90
32107;DHT22;18622;51.998;10.440;2023-10-09T11:32:06;16.80;99.90
32107;DHT22;18622;51.998;10.440;2023-10-09T11:34:40;16.80;99.90
32107;DHT22;18622;51.998;10.440;2023-10-09T11:39:42;16.90;99.90
32107;DHT22;18622;51.998;10.440;2023-10-09T11:42:20;16.80;99.90
32107;DHT22;18622;51.998;10.440;2023-10-09T11:44:50;16.80;99.90
32107;DHT22;18622;51.998;10.440;2023-10-09T11:47:19;16.80;99.90
32107;DHT22;18622;51.998;10.440;2023-10-09T11:49:56;16.80;99.90
32107;DHT22;18622;51.998;10.440;2023-10-09T11:52:28;16.80;99.90
32107;DHT22;18622;51.998;10.440;2023-10-09T11:55:03;16.80;99.90
32107;DHT22;18622;51.998;10.440;2023-10-09T11:57:33;16.80;99.90
32107;DHT22;18622;51.998;10.440;2023-10-09T12:00:03;16.80;99.90
32107;DHT22;18622;51.998;10.440;2023-10-09T12:02:49;16.90;99.90
32107;DHT22;18622;51.998;10.440;2023-10-09T12:05:17;16.90;99.90
32107;DHT22;18622;51.998;10.440;2023-10-09T12:07:46;16.90;99.90
32107;DHT22;18622;51.998;10.440;2023-10-09T12:10:13;16.90;99.90
32107;DHT22;18622;51.998;10.440;2023-10-09T12:12:41;16.90;99.90
32107;DHT22;18622;51.998;10.440;2023-10-09T12:15:11;17.00;99.90
32107;DHT22;18622;51.998;10.440;2023-10-09T12:17:40;17.00;99.90
32107;DHT22;18622;51.998;10.440;2023-10-09T12:20:10;17.00;99.90
32107;DHT22;18622;51.998;10.440;2023-10-09T12:22:39;17.00;99.90
32107;DHT22;18622;51.998;10.440;2023-10-09T12:25:08;17.00;99.90
32107;DHT22;18622;51.998;10.440;2023-10-09T12:27:35;17.00;99.90
32107;DHT22;18622;51.998;10.440;2023-10-09T12:30:04;17.00;99.90
32107;DHT22;18622;51.998;10.440;2023-10-09T12:32:31;17.00;99.90
32107;DHT22;18622;51.998;10.440;2023-10-09T12:35:01;17.10;99.90
32107;DHT22;18622;51.998;10.440;2023-10-09T12:37:29;17.10;99.90
32107;DHT22;18622;51.998;10.440;2023-10-09T12:39:57;17.10;99.90
32107;DHT22;18622;51.998;10.440;2023-10-09T12:42:25;17.10;99.90
32107;DHT22;18622;51.998;10.440;2023-10-09T12:44:55;17.10;99.90
32107;DHT22;18622;51.998;10.440;2023-10-09T12:47:24;17.10;99.90
32107;DHT22;18622;51.998;10.440;2023-10-09T12:49:53;17.10;99.90
32107;DHT22;18622;51.998;10.440;2023-10-09T12:52:20;17.10;99.90
32107;DHT22;18622;51.998;10.440;2023-10-09T12:54:50;17.20;99.90
32107;DHT22;18622;51.998;10.440;2023-10-09T12:57:19;17.20;99.90
32107;DHT22;18622;51.998;10.440;2023-10-09T12:59:46;17.30;99.90
32107;DHT22;18622;51.998;10.440;2023-10-09T13:02:15;17.20;99.90
32107;DHT22;18622;51.998;10.440;2023-10-09T13:05:01;17.30;99.90
32107;DHT22;18622;51.998;10.440;2023-10-09T13:07:26;17.20;99.90
32107;DHT22;18622;51.998;10.440;2023-10-09T13:09:54;17.20;99.90
32107;DHT22;18622;51.998;10.440;2023-10-09T13:12:39;17.20;99.90
32107;DHT22;18622;51.998;10.440;2023-10-09T13:15:10;17.20;99.90
32107;DHT22;18622;51.998;10.440;2023-10-09T13:17:38;17.10;99.90
32107;DHT22;18622;51.998;10.440;2023-10-09T13:20:06;17.10;99.90
32107;DHT22;18622;51.998;10.440;2023-10-09T13:22:36;17.10;99.90
32107;DHT22;18622;51.998;10.440;2023-10-09T13:25:10;17.10;99.90
32107;DHT22;18622;51.998;10.440;2023-10-09T13:27:44;17.10;99.90
32107;DHT22;18622;51.998;10.440;2023-10-09T13:30:15;17.10;99.90
32107;DHT22;18622;51.998;10.440;2023-10-09T13:32:44;17.10;99.90
32107;DHT22;18622;51.998;10.440;2023-10-09T13:35:14;17.10;99.90
32107;DHT22;18622;51.998;10.440;2023-10-09T13:37:44;17.10;99.90
32107;DHT22;18622;51.998;10.440;2023-10-09T13:40:14;17.10;99.90
32107;DHT22;18622;51.998;10.440;2023-10-09T13:42:43;17.10;99.90
32107;DHT22;18622;51.998;10.440;2023-10-09T13:45:12;17.10;99.90
32107;DHT22;18622;51.998;10.440;2023-10-09T13:47:41;17.10;99.90
32107;DHT22;18622;51.998;10.440;2023-10-09T13:50:10;17.10;99.90
32107;DHT22;18622;51.998;10.440;2023-10-09T13:52:39;17.10;99.90
32107;DHT22;18622;51.998;10.440;2023-10-09T13:55:08;17.10;99.90
32107;DHT22;18622;51.998;10.440;2023-10-09T13:57:44;17.10;99.90
32107;DHT22;18622;51.998;10.440;2023-10-09T14:00:14;17.10;99.90
32107;DHT22;18622;51.998;10.440;2023-10-09T14:02:47;17.20;99.90
32107;DHT22;18622;51.998;10.440;2023-10-09T14:05:16;17.20;99.90
32107;DHT22;18622;51.998;10.440;2023-10-09T14:07:44;17.20;99.90
32107;DHT22;18622;51.998;10.440;2023-10-09T14:10:12;17.30;99.90
32107;DHT22;18622;51.998;10.440;2023-10-09T14:12:47;17.30;99.90
32107;DHT22;18622;51.998;10.440;2023-10-09T14:15:17;17.30;99.90
32107;DHT22;18622;51.998;10.440;2023-10-09T14:17:45;17.30;99.90
32107;DHT22;18622;51.998;10.440;2023-10-09T14:20:17;17.30;99.90
32107;DHT22;18622;51.998;10.440;2023-10-09T14:22:59;17.30;99.90
32107;DHT22;18622;51.998;10.440;2023-10-09T14:25:29;17.30;99.90
32107;DHT22;18622;51.998;10.440;2023-10-09T14:27:57;17.40;99.90
32107;DHT22;18622;51.998;10.440;2023-10-09T14:30:25;17.50;99.90
32107;DHT22;18622;51.998;10.440;2023-10-09T14:33:00;17.50;99.90
32107;DHT22;18622;51.998;10.440;2023-10-09T14:35:32;17.50;99.90
32107;DHT22;18622;51.998;10.440;2023-10-09T14:37:59;17.60;99.90
32107;DHT22;18622;51.998;10.440;2023-10-09T14:40:29;17.60;99.90
32107;DHT22;18622;51.998;10.440;2023-10-09T14:42:58;17.60;99.90
32107;DHT22;18622;51.998;10.440;2023-10-09T14:45:26;17.70;99.90
32107;DHT22;18622;51.998;10.440;2023-10-09T14:47:54;17.60;99.90
32107;DHT22;18622;51.998;10.440;2023-10-09T14:50:22;17.60;99.90
32107;DHT22;18622;51.998;10.440;2023-10-09T14:52:50;17.60;99.90
32107;DHT22;18622;51.998;10.440;2023-10-09T14:55:18;17.60;99.90
32107;DHT22;18622;51.998;10.440;2023-10-09T14:57:48;17.60;99.90
32107;DHT22;18622;51.998;10.440;2023-10-09T15:00:16;17.60;99.90
32107;DHT22;18622;51.998;10.440;2023-10-09T15:02:46;17.60;99.90
32107;DHT22;18622;51.998;10.440;2023-10-09T15:05:14;17.60;99.90
32107;DHT22;18622;51.998;10.440;2023-10-09T15:07:42;17.70;99.90
32107;DHT22;18622;51.998;10.440;2023-10-09T15:10:12;17.70;99.90
32107;DHT22;18622;51.998;10.440;2023-10-09T15:12:42;17.70;99.90
32107;DHT22;18622;51.998;10.440;2023-10-09T15:15:10;17.70;99.90
32107;DHT22;18622;51.998;10.440;2023-10-09T15:17:41;17.70;99.90
32107;DHT22;18622;51.998;10.440;2023-10-09T15:20:11;17.70;99.90
32107;DHT22;18622;51.998;10.440;2023-10-09T15:22:44;17.80;99.90
32107;DHT22;18622;51.998;10.440;2023-10-09T15:25:13;17.70;99.90
32107;DHT22;18622;51.998;10.440;2023-10-09T15:27:42;17.70;99.90
32107;DHT22;18622;51.998;10.440;2023-10-09T15:30:10;17.80;99.90
32107;DHT22;18622;51.998;10.440;2023-10-09T15:32:44;17.70;99.90
32107;DHT22;18622;51.998;10.440;2023-10-09T15:35:12;17.80;99.90
32107;DHT22;18622;51.998;10.440;2023-10-09T15:37:41;17.80;99.90
32107;DHT22;18622;51.998;10.440;2023-10-09T15:40:09;17.80;99.90
32107;DHT22;18622;51.998;10.440;2023-10-09T15:42:44;17.70;99.90
32107;DHT22;18622;51.998;10.440;2023-10-09T15:45:14;17.80;99.90
32107;DHT22;18622;51.998;10.440;2023-10-09T15:47:42;17.80;99.90
32107;DHT22;18622;51.998;10.440;2023-10-09T15:50:11;17.70;99.90
32107;DHT22;18622;51.998;10.440;2023-10-09T15:52:41;17.70;99.90
32107;DHT22;18622;51.998;10.440;2023-10-09T15:55:09;17.60;99.90
32107;DHT22;18622;51.998;10.440;2023-10-09T15:57:41;17.60;99.90
32107;DHT22;18622;51.998;10.440;2023-10-09T16:00:08;17.50;99.90
32107;DHT22;18622;51.998;10.440;2023-10-09T16:02:46;17.60;99.90
32107;DHT22;18622;51.998;10.440;2023-10-09T16:05:15;17.50;99.90
32107;DHT22;18622;51.998;10.440;2023-10-09T16:07:43;17.50;99.90
32107;DHT22;18622;51.998;10.440;2023-10-09T16:10:11;17.50;99.90
32107;DHT22;18622;51.998;10.440;2023-10-09T16:12:40;17.50;99.90
32107;DHT22;18622;51.998;10.440;2023-10-09T16:15:09;17.40;99.90
32107;DHT22;18622;51.998;10.440;2023-10-09T16:17:39;17.40;99.90
32107;DHT22;18622;51.998;10.440;2023-10-09T16:20:07;17.30;99.90
32107;DHT22;18622;51.998;10.440;2023-10-09T16:22:37;17.30;99.90
32107;DHT22;18622;51.998;10.440;2023-10-09T16:25:05;17.30;99.90
32107;DHT22;18622;51.998;10.440;2023-10-09T16:27:35;17.30;99.90
32107;DHT22;18622;51.998;10.440;2023-10-09T16:30:03;17.30;99.90
32107;DHT22;18622;51.998;10.440;2023-10-09T16:32:32;17.30;99.90
32107;DHT22;18622;51.998;10.440;2023-10-09T16:35:00;17.30;99.90
32107;DHT22;18622;51.998;10.440;2023-10-09T16:37:28;17.30;99.90
32107;DHT22;18622;51.998;10.440;2023-10-09T16:39:56;17.30;99.90
32107;DHT22;18622;51.998;10.440;2023-10-09T16:42:24;17.30;99.90
32107;DHT22;18622;51.998;10.440;2023-10-09T16:44:52;17.30;99.90
32107;DHT22;18622;51.998;10.440;2023-10-09T16:47:22;17.20;99.90
32107;DHT22;18622;51.998;10.440;2023-10-09T16:49:50;17.20;99.90
32107;DHT22;18622;51.998;10.440;2023-10-09T16:52:18;17.30;99.90
32107;DHT22;18622;51.998;10.440;2023-10-09T16:54:46;17.20;99.90
32107;DHT22;18622;51.998;10.440;2023-10-09T16:57:14;17.20;99.90
32107;DHT22;18622;51.998;10.440;2023-10-09T16:59:41;17.20;99.90
32107;DHT22;18622;51.998;10.440;2023-10-09T17:02:11;17.30;99.90
32107;DHT22;18622;51.998;10.440;2023-10-09T17:04:39;17.30;99.90
32107;DHT22;18622;51.998;10.440;2023-10-09T17:07:08;17.30;99.90
32107;DHT22;18622;51.998;10.440;2023-10-09T17:09:37;17.40;99.90
32107;DHT22;18622;51.998;10.440;2023-10-09T17:12:07;17.40;99.90
32107;DHT22;18622;51.998;10.440;2023-10-09T17:14:35;17.40;99.90
32107;DHT22;18622;51.998;10.440;2023-10-09T17:17:03;17.40;99.90
32107;DHT22;18622;51.998;10.440;2023-10-09T17:19:33;17.40;99.90
32107;DHT22;18622;51.998;10.440;2023-10-09T17:22:02;17.40;99.90
32107;DHT22;18622;51.998;10.440;2023-10-09T17:24:32;17.40;99.90
32107;DHT22;18622;51.998;10.440;2023-10-09T17:27:00;17.40;99.90
32107;DHT22;18622;51.998;10.440;2023-10-09T17:29:27;17.50;99.90
32107;DHT22;18622;51.998;10.440;2023-10-09T17:31:55;17.50;99.90
32107;DHT22;18622;51.998;10.440;2023-10-09T17:34:23;17.50;99.90
32107;DHT22;18622;51.998;10.440;2023-10-09T17:36:53;17.50;99.90
32107;DHT22;18622;51.998;10.440;2023-10-09T17:39:20;17.50;99.90
32107;DHT22;18622;51.998;10.440;2023-10-09T17:41:50;17.60;99.90
32107;DHT22;18622;51.998;10.440;2023-10-09T17:44:19;17.50;99.90
32107;DHT22;18622;51.998;10.440;2023-10-09T17:46:48;17.50;99.90
32107;DHT22;18622;51.998;10.440;2023-10-09T17:49:16;17.40;99.90
32107;DHT22;18622;51.998;10.440;2023-10-09T17:51:44;17.50;99.90
32107;DHT22;18622;51.998;10.440;2023-10-09T17:54:11;17.50;99.90
32107;DHT22;18622;51.998;10.440;2023-10-09T17:56:40;17.50;99.90
32107;DHT22;18622;51.998;10.440;2023-10-09T17:59:08;17.50;99.90
32107;DHT22;18622;51.998;10.440;2023-10-09T18:01:38;17.60;99.90
32107;DHT22;18622;51.998;10.440;2023-10-09T18:04:06;17.60;99.90
32107;DHT22;18622;51.998;10.440;2023-10-09T18:06:34;17.50;99.90
32107;DHT22;18622;51.998;10.440;2023-10-09T18:09:03;17.50;99.90
32107;DHT22;18622;51.998;10.440;2023-10-09T18:11:32;17.50;99.90
32107;DHT22;18622;51.998;10.440;2023-10-09T18:14:00;17.50;99.90
32107;DHT22;18622;51.998;10.440;2023-10-09T18:16:28;17.40;99.90
32107;DHT22;18622;51.998;10.440;2023-10-09T18:18:56;17.30;99.90
32107;DHT22;18622;51.998;10.440;2023-10-09T18:21:24;17.30;99.90
32107;DHT22;18622;51.998;10.440;2023-10-09T18:23:51;17.30;99.90
32107;DHT22;18622;51.998;10.440;2023-10-09T18:26:21;17.30;99.90
32107;DHT22;18622;51.998;10.440;2023-10-09T18:28:50;17.30;99.90
32107;DHT22;18622;51.998;10.440;2023-10-09T18:31:19;17.30;99.90
32107;DHT22;18622;51.998;10.440;2023-10-09T18:33:48;17.30;99.90
32107;DHT22;18622;51.998;10.440;2023-10-09T18:36:18;17.30;99.90
32107;DHT22;18622;51.998;10.440;2023-10-09T18:38:46;17.30;99.90
32107;DHT22;18622;51.998;10.440;2023-10-09T18:41:15;17.30;99.90
32107;DHT22;18622;51.998;10.440;2023-10-09T18:43:43;17.20;99.90
32107;DHT22;18622;51.998;10.440;2023-10-09T18:46:11;17.20;99.90
32107;DHT22;18622;51.998;10.440;2023-10-09T18:48:40;17.20;99.90
32107;DHT22;18622;51.998;10.440;2023-10-09T18:51:16;17.10;99.90
32107;DHT22;18622;51.998;10.440;2023-10-09T18:53:45;17.10;99.90
32107;DHT22;18622;51.998;10.440;2023-10-09T18:56:14;17.20;99.90
32107;DHT22;18622;51.998;10.440;2023-10-09T18:58:42;17.10;99.90
32107;DHT22;18622;51.998;10.440;2023-10-09T19:01:10;17.10;99.90
32107;DHT22;18622;51.998;10.440;2023-10-09T19:03:41;17.10;99.90
32107;DHT22;18622;51.998;10.440;2023-10-09T19:06:09;17.10;99.90
32107;DHT22;18622;51.998;10.440;2023-10-09T19:08:39;17.10;99.90
32107;DHT22;18622;51.998;10.440;2023-10-09T19:11:06;17.10;99.90
32107;DHT22;18622;51.998;10.440;2023-10-09T19:13:38;17.10;99.90
32107;DHT22;18622;51.998;10.440;2023-10-09T19:16:07;17.10;99.90
32107;DHT22;18622;51.998;10.440;2023-10-09T19:18:35;17.10;99.90
32107;DHT22;18622;51.998;10.440;2023-10-09T19:21:09;17.10;99.90